Time;durP1;ratioP1;P1;durP2;ratioP2;P2;SDS_P1;SDS_P2;PMS_P1;PMS_P2;Temp;Humidity;BMP_temperature;BMP_pressure;BME280_temperature;BME280_humidity;BME280_pressure;Samples;Min_cycle;Max_cycle;Signal;HPM_P1;HPM_P2
2022/04/28 04:11:38;;;;;;;13.55;11.10;;;;;;;8.34;100.00;100822.66;5557641;32;204874;-88
2022/04/28 04:14:42;;;;;;;16.15;11.02;;;;;;;8.29;100.00;100818.44;5544029;32;33528;-88
2022/04/28 04:17:45;;;;;;;16.05;9.75;;;;;;;8.31;100.00;100822.75;5545105;32;33756;-88
2022/04/28 04:20:49;;;;;;;13.13;9.65;;;;;;;8.33;100.00;100820.94;5545073;32;34507;-92
2022/04/28 04:23:53;;;;;;;12.10;9.15;;;;;;;8.37;100.00;100824.34;5544353;32;32720;-93
2022/04/28 04:26:57;;;;;;;10.70;9.05;;;;;;;8.42;100.00;100822.41;5545637;32;34159;-92
2022/04/28 04:32:17;;;;;;;10.95;8.75;;;;;;;8.46;100.00;100818.72;5546335;32;34049;-89
2022/04/28 04:33:27;;;;;;;12.00;8.95;;;;;;;8.62;100.00;100816.44;5554630;32;33021;-88
2022/04/28 04:36:29;;;;;;;11.80;8.68;;;;;;;8.61;100.00;100822.66;5553936;32;33845;-88
2022/04/28 04:39:33;;;;;;;10.05;8.20;;;;;;;8.62;100.00;100819.09;5547872;32;34274;-88
2022/04/28 04:42:35;;;;;;;11.60;8.65;;;;;;;8.70;100.00;100824.13;5548296;32;34064;-88
2022/04/28 04:45:38;;;;;;;12.95;8.32;;;;;;;8.72;100.00;100832.00;5544025;32;34464;-88
2022/04/28 04:48:41;;;;;;;9.50;7.82;;;;;;;8.78;100.00;100831.81;5544244;32;33827;-88
2022/04/28 04:51:45;;;;;;;10.70;8.60;;;;;;;8.83;100.00;100829.87;5544114;32;34084;-88
2022/04/28 04:54:48;;;;;;;10.20;8.73;;;;;;;8.85;100.00;100828.00;5544143;32;33620;-87
2022/04/28 04:57:51;;;;;;;10.48;9.00;;;;;;;8.98;100.00;100835.53;5545356;32;33962;-87
2022/04/28 05:00:54;;;;;;;10.98;8.65;;;;;;;9.06;100.00;100836.13;5544411;32;33867;-87
2022/04/28 05:04:00;;;;;;;10.05;8.30;;;;;;;9.10;100.00;100835.06;5546053;32;33299;-85
2022/04/28 05:07:03;;;;;;;10.93;8.75;;;;;;;9.13;100.00;100844.69;5544975;32;32506;-85
2022/04/28 05:10:06;;;;;;;10.45;8.60;;;;;;;9.23;100.00;100839.91;5545967;32;34436;-86
2022/04/28 05:13:09;;;;;;;10.82;8.75;;;;;;;9.34;100.00;100847.50;5546585;32;34348;-87
2022/04/28 05:16:12;;;;;;;14.50;8.80;;;;;;;9.54;100.00;100844.06;5544343;32;33831;-87
2022/04/28 05:19:15;;;;;;;10.43;8.65;;;;;;;9.66;100.00;100848.91;5544097;32;33952;-87
2022/04/28 05:22:19;;;;;;;13.93;9.07;;;;;;;9.73;100.00;100851.31;5535067;32;33966;-87
2022/04/28 05:25:23;;;;;;;10.73;9.15;;;;;;;9.94;100.00;100852.25;5540590;32;34027;-87
2022/04/28 05:28:27;;;;;;;10.50;8.35;;;;;;;10.05;100.00;100857.16;5542196;32;33837;-88
2022/04/28 05:31:31;;;;;;;12.13;8.30;;;;;;;9.85;100.00;100866.72;5533069;32;33188;-88
2022/04/28 05:34:35;;;;;;;11.07;8.40;;;;;;;9.79;100.00;100866.97;5530407;32;32675;-88
2022/04/28 05:37:40;;;;;;;9.48;7.85;;;;;;;9.85;100.00;100869.38;5529968;32;32918;-87
2022/04/28 05:40:45;;;;;;;9.55;7.70;;;;;;;10.05;100.00;100873.06;5530270;32;32042;-87
2022/04/28 06:25:30;;;;;;;8.30;6.95;;;;;;;11.75;96.18;100889.75;5353286;29;20108;-90
2022/04/28 06:28:34;;;;;;;8.85;7.40;;;;;;;12.10;94.31;100896.12;5514865;32;34143;-90
2022/04/28 06:31:36;;;;;;;8.77;6.97;;;;;;;12.28;94.80;100896.19;5531243;32;33795;-90
2022/04/28 06:34:42;;;;;;;10.95;7.07;;;;;;;11.97;92.84;100902.94;5531032;32;34087;-90
2022/04/28 06:37:45;;;;;;;8.32;6.65;;;;;;;12.11;92.56;100907.63;5521040;32;32403;-91
2022/04/28 06:40:48;;;;;;;7.32;6.47;;;;;;;12.43;91.74;100899.91;5515780;32;33667;-91
2022/04/28 06:43:51;;;;;;;9.65;6.75;;;;;;;12.25;93.87;100906.97;5520007;32;33227;-90
2022/04/28 06:46:57;;;;;;;9.88;6.87;;;;;;;12.52;93.05;100904.75;5531790;32;33679;-90
2022/04/28 06:50:04;;;;;;;7.53;6.50;;;;;;;12.48;89.80;100907.66;5532016;32;35230;-90
2022/04/28 06:53:11;;;;;;;7.37;6.57;;;;;;;12.54;90.11;100908.19;5528669;32;34046;-89
2022/04/28 06:56:17;;;;;;;8.55;6.50;;;;;;;12.48;90.60;100903.16;5519207;32;34800;-90
2022/04/28 06:59:24;;;;;;;10.52;6.40;;;;;;;12.10;89.62;100906.78;5516263;32;33850;-91
2022/04/28 07:02:28;;;;;;;7.20;5.80;;;;;;;12.32;88.11;100904.87;5513751;32;33533;-90
2022/04/28 07:05:33;;;;;;;8.40;6.07;;;;;;;12.53;86.57;100897.63;5498884;32;35539;-88
2022/04/28 07:08:36;;;;;;;8.80;6.57;;;;;;;11.98;88.99;100904.66;5514845;32;34775;-88
2022/04/28 07:11:39;;;;;;;9.07;6.53;;;;;;;11.85;90.66;100910.56;5513157;32;35170;-90
2022/04/28 07:14:43;;;;;;;7.70;6.10;;;;;;;12.13;89.01;100909.25;5500382;32;32884;-90
2022/04/28 07:25:11;;;;;;;7.65;6.20;;;;;;;12.54;87.58;100910.84;2143882;26;20444;-86
2022/04/28 07:28:14;;;;;;;8.13;6.22;;;;;;;12.71;88.22;100913.62;5501817;32;32874;-85
2022/04/28 07:31:18;;;;;;;13.27;6.68;;;;;;;12.74;87.58;100910.81;5511782;32;32996;-86
2022/04/28 07:34:25;;;;;;;9.25;6.32;;;;;;;12.52;87.42;100919.84;5502703;32;32668;-86
2022/04/28 07:37:32;;;;;;;8.18;6.80;;;;;;;12.80;83.99;100924.69;5519727;32;33404;-85
2022/04/28 07:40:37;;;;;;;7.93;6.20;;;;;;;13.06;85.64;100927.81;5513141;32;32138;-85
2022/04/28 07:43:41;;;;;;;6.90;5.70;;;;;;;12.91;85.26;100932.09;5525064;32;34195;-85
2022/04/28 07:46:44;;;;;;;10.95;6.30;;;;;;;13.24;82.07;100929.59;5523284;32;33731;-86
2022/04/28 07:49:47;;;;;;;10.30;6.65;;;;;;;13.16;81.00;100933.50;5504257;32;32453;-86
2022/04/28 07:52:50;;;;;;;7.90;6.57;;;;;;;13.52;79.54;100926.34;5511003;32;33161;-86
2022/04/28 07:56:11;;;;;;;9.20;5.95;;;;;;;13.92;78.48;100928.66;5514836;32;33975;-88
2022/04/28 07:59:15;;;;;;;8.25;6.03;;;;;;;14.09;77.31;100922.38;5497949;32;32324;-88
2022/04/28 08:02:27;;;;;;;11.95;6.25;;;;;;;14.26;75.12;100921.47;5514240;32;32485;-88
2022/04/28 08:05:30;;;;;;;8.30;6.10;;;;;;;13.96;77.67;100919.56;5504398;32;32594;-88
2022/04/28 08:08:35;;;;;;;7.47;6.30;;;;;;;14.23;75.78;100923.44;5504211;32;32862;-88
2022/04/28 08:11:40;;;;;;;6.70;6.00;;;;;;;14.42;77.62;100931.25;5528239;32;33927;-87
2022/04/28 08:14:49;;;;;;;8.38;5.60;;;;;;;15.23;73.69;100923.91;5527723;32;33142;-87
2022/04/28 08:17:53;;;;;;;7.30;5.50;;;;;;;16.06;68.53;100925.06;5528753;32;35326;-87
2022/04/28 08:20:56;;;;;;;11.30;4.87;;;;;;;17.26;64.51;100927.06;5514992;32;34678;-87
2022/04/28 08:23:59;;;;;;;7.72;4.60;;;;;;;17.21;59.07;100932.75;5505320;32;33786;-87
2022/04/28 08:27:02;;;;;;;5.70;4.60;;;;;;;17.99;57.80;100917.44;5518892;32;34416;-87
2022/04/28 08:30:06;;;;;;;5.00;4.28;;;;;;;18.25;55.32;100928.13;5519709;32;33650;-88
2022/04/28 08:33:08;;;;;;;4.43;4.03;;;;;;;17.30;56.62;100932.09;5520274;32;33597;-89
2022/04/28 08:36:13;;;;;;;5.72;4.53;;;;;;;17.22;51.87;100945.19;5566318;26;31860;-88
2022/04/28 08:43:11;;;;;;;7.85;3.83;;;;;;;17.50;51.06;100935.22;987155;26;20380;-88
2022/04/28 08:49:49;;;;;;;4.18;3.78;;;;;;;17.05;51.69;100941.81;5499918;32;34251;-87
2022/04/28 08:52:54;;;;;;;5.97;3.97;;;;;;;17.80;54.75;100938.53;5500551;32;34482;-92
2022/04/28 08:55:58;;;;;;;6.00;4.22;;;;;;;18.10;51.04;100937.31;5508652;32;33938;-92
2022/04/28 08:59:02;;;;;;;8.00;4.53;;;;;;;18.42;51.99;100939.44;5511335;32;33740;-89
2022/04/28 09:02:05;;;;;;;7.70;4.12;;;;;;;18.13;49.16;100937.06;5511088;32;34702;-86
2022/04/28 09:05:18;;;;;;;7.30;4.20;;;;;;;18.51;48.29;100937.91;5498584;32;32300;-87
2022/04/28 09:08:23;;;;;;;4.75;4.25;;;;;;;19.22;49.07;100937.94;5488882;32;32492;-87
2022/04/28 09:11:29;;;;;;;6.15;4.57;;;;;;;19.12;49.18;100942.31;5479116;32;34003;-88
2022/04/28 09:14:42;;;;;;;6.25;4.37;;;;;;;18.94;48.70;100940.03;5493836;32;34620;-88
2022/04/28 09:17:45;;;;;;;9.68;4.40;;;;;;;18.91;47.04;100939.41;5485674;32;32622;-88
2022/04/28 09:20:50;;;;;;;10.82;4.00;;;;;;;19.17;47.71;100941.97;5505160;32;35185;-86
2022/04/28 09:23:53;;;;;;;5.62;4.60;;;;;;;18.80;48.09;100943.78;5498336;32;33379;-85
2022/04/28 09:26:57;;;;;;;10.05;7.07;;;;;;;17.75;49.82;100950.44;5503979;32;33734;-86
2022/04/28 09:30:00;;;;;;;8.13;5.05;;;;;;;17.38;49.13;100951.22;5503738;32;34043;-86
2022/04/28 09:33:12;;;;;;;4.95;4.45;;;;;;;17.90;50.82;100943.09;5494839;32;33210;-88
2022/04/28 09:36:19;;;;;;;9.02;4.70;;;;;;;18.41;49.99;100943.94;5552893;26;34863;-89
2022/04/28 09:43:08;;;;;;;5.55;4.55;;;;;;;19.25;47.00;100943.09;1166239;26;20438;-90
2022/04/28 09:46:12;;;;;;;4.55;4.15;;;;;;;19.61;45.37;100943.00;5585465;26;34514;-90
2022/04/28 09:49:17;;;;;;;7.07;4.35;;;;;;;20.13;44.48;100941.66;5519302;32;33147;-88
2022/04/28 09:52:29;;;;;;;6.45;4.70;;;;;;;20.39;44.24;100947.59;5518046;32;33425;-88
2022/04/28 09:55:34;;;;;;;4.95;4.45;;;;;;;20.60;43.76;100946.78;5517062;32;34645;-89
2022/04/28 09:58:42;;;;;;;6.55;4.80;;;;;;;20.20;43.59;100941.03;5523946;32;32829;-92
2022/04/28 10:01:47;;;;;;;5.70;4.55;;;;;;;19.77;44.98;100948.00;5520339;32;33837;-92
2022/04/28 10:19:50;;;;;;;5.55;4.62;;;;;;;17.93;50.47;100950.09;3891736;26;20083;-91
2022/04/28 10:22:58;;;;;;;5.87;4.68;;;;;;;17.79;49.82;100945.69;5543677;32;32488;-88
2022/04/28 10:32:55;;;;;;;6.40;4.80;;;;;;;17.70;48.11;100943.69;5539027;32;33979;-88
2022/04/28 10:36:01;;;;;;;6.53;5.22;;;;;;;17.68;47.85;100941.09;5540749;32;32404;-87
2022/04/28 10:39:07;;;;;;;6.75;4.65;;;;;;;17.50;48.51;100948.66;5540379;32;34017;-88
2022/04/28 10:42:15;;;;;;;8.02;6.35;;;;;;;17.81;48.90;100950.97;5536160;32;32798;-88
2022/04/28 10:45:22;;;;;;;8.82;5.43;;;;;;;18.06;47.38;100947.41;5537613;32;32873;-88
2022/04/28 10:48:48;;;;;;;5.95;4.72;;;;;;;18.35;46.17;100943.56;5588790;26;32371;-89
2022/04/28 10:51:57;;;;;;;4.40;4.00;;;;;;;18.61;44.11;100954.19;5543569;32;34406;-90
2022/04/28 10:55:02;;;;;;;5.30;4.15;;;;;;;18.34;43.83;100947.22;5535415;32;34571;-92
2022/04/28 10:58:18;;;;;;;5.82;4.22;;;;;;;18.31;45.09;100954.53;5536912;32;32698;-89
2022/04/28 11:08:54;;;;;;;4.53;4.12;;;;;;;18.30;43.11;100962.69;4996253;26;20475;-90
2022/04/28 11:12:07;;;;;;;6.55;4.12;;;;;;;18.08;44.32;100963.38;5569686;32;34545;-90
2022/04/28 11:15:13;;;;;;;4.70;4.30;;;;;;;18.67;46.21;100962.66;5566882;32;34010;-89
2022/04/28 11:21:46;;;;;;;5.95;4.10;;;;;;;20.02;40.57;100969.47;5544016;32;34344;-89
2022/04/28 11:24:49;;;;;;;6.75;4.72;;;;;;;20.60;42.00;100960.25;5536480;32;34377;-89
2022/04/28 11:27:53;;;;;;;5.22;4.72;;;;;;;19.33;45.63;100964.00;5543194;32;33862;-88
2022/04/28 11:30:58;;;;;;;5.90;5.32;;;;;;;18.80;49.92;100973.34;5551091;32;34290;-88
2022/04/28 11:34:05;;;;;;;5.47;4.93;;;;;;;18.12;50.70;100978.31;5578735;26;32332;-90
2022/04/28 11:37:16;;;;;;;9.07;4.95;;;;;;;18.23;51.75;100981.09;5588857;26;33559;-88
2022/04/28 11:40:44;;;;;;;6.72;5.00;;;;;;;17.80;51.84;100981.44;5538921;32;33404;-89
2022/04/28 12:36:48;;;;;;;3.53;3.22;;;;;;;20.08;40.04;100977.03;3255000;26;20120;-89
2022/04/28 12:43:42;;;;;;;4.28;3.55;;;;;;;20.07;40.57;100972.66;4953140;26;20164;-89
2022/04/28 12:54:18;;;;;;;5.22;3.70;;;;;;;20.19;41.15;100978.84;2462264;29;20136;-89
2022/04/28 12:57:30;;;;;;;5.25;4.00;;;;;;;20.92;40.27;100972.91;5550403;32;35129;-89
2022/04/28 13:00:38;;;;;;;4.18;3.58;;;;;;;20.43;40.40;100980.53;5544081;32;33081;-90
2022/04/28 13:14:52;;;;;;;4.47;4.00;;;;;;;19.72;40.89;100969.03;5523530;29;20079;-88
2022/04/28 13:17:59;;;;;;;4.00;3.67;;;;;;;18.72;44.31;100973.91;5604108;26;33459;-88
2022/04/28 13:21:02;;;;;;;4.35;4.00;;;;;;;18.80;43.24;100976.03;5572815;32;33787;-88
2022/04/28 13:27:44;;;;;;;4.05;3.65;;;;;;;19.24;46.03;100979.03;3527643;26;20104;-88
2022/04/28 13:30:49;;;;;;;5.57;4.05;;;;;;;18.47;43.92;100974.03;5518237;32;33435;-90
2022/04/28 13:33:53;;;;;;;5.55;3.85;;;;;;;18.50;44.83;100974.66;5526558;32;32347;-91
2022/04/28 13:36:57;;;;;;;4.80;3.78;;;;;;;19.01;44.76;100974.53;5531838;32;33768;-92
2022/04/28 13:40:06;;;;;;;4.32;3.70;;;;;;;19.38;42.07;100972.59;5523071;32;32028;-89
2022/04/28 13:43:09;;;;;;;5.55;3.83;;;;;;;19.12;42.84;100972.75;5532050;32;33915;-90
2022/04/28 13:46:20;;;;;;;4.10;3.08;;;;;;;19.25;42.09;100974.50;5542168;32;34501;-88
2022/04/28 13:49:23;;;;;;;4.03;3.60;;;;;;;19.26;39.98;100971.69;5527859;32;32843;-87
2022/04/28 13:52:25;;;;;;;5.70;3.78;;;;;;;19.35;40.50;100967.44;5556779;32;33973;-87
2022/04/28 13:55:28;;;;;;;6.05;3.70;;;;;;;19.36;39.47;100960.22;5525627;32;33053;-86
2022/04/28 13:58:33;;;;;;;3.85;3.55;;;;;;;19.85;39.02;100960.84;5519676;32;32348;-86
2022/04/28 14:01:37;;;;;;;4.07;3.53;;;;;;;20.20;38.55;100959.88;5530169;32;35627;-87
2022/04/28 14:04:41;;;;;;;5.22;3.67;;;;;;;20.67;39.37;100955.22;5516447;32;34963;-88
2022/04/28 14:11:33;;;;;;;4.15;3.75;;;;;;;19.74;41.61;100963.56;1801925;26;20263;-89
2022/04/28 14:14:40;;;;;;;4.57;3.95;;;;;;;20.20;38.98;100954.50;5580690;26;35269;-89
2022/04/28 14:17:55;;;;;;;4.07;3.78;;;;;;;19.96;39.30;100953.81;5591600;26;32544;-89
2022/04/28 14:28:06;;;;;;;3.80;3.40;;;;;;;19.12;38.58;100953.91;5534038;32;32493;-88
2022/04/28 14:42:05;;;;;;;4.30;3.70;;;;;;;18.66;41.88;100957.41;5535647;32;30935;-90
2022/04/28 14:45:28;;;;;;;4.30;3.90;;;;;;;18.51;40.45;100954.88;5537104;32;32554;-89
2022/04/28 14:52:19;;;;;;;4.22;3.83;;;;;;;18.30;41.31;100950.13;5535759;32;32746;-90
2022/04/28 14:55:18;;;;;;;4.47;3.90;;;;;;;18.23;41.55;100959.59;5486148;32;31368;-91
2022/04/28 14:58:20;;;;;;;4.10;3.80;;;;;;;17.93;42.33;100960.81;5540775;26;32750;-90
2022/04/28 15:01:23;;;;;;;4.20;3.80;;;;;;;17.76;43.18;100962.87;5510833;32;34023;-90
2022/04/28 15:04:27;;;;;;;4.10;3.80;;;;;;;17.54;43.41;100954.66;5573634;26;34303;-90
2022/04/28 15:07:30;;;;;;;3.80;3.50;;;;;;;17.59;44.20;100963.19;5513088;32;33290;-90
2022/04/28 15:10:33;;;;;;;5.78;3.90;;;;;;;17.39;44.64;100970.81;5526925;32;33661;-90
2022/04/28 15:13:36;;;;;;;4.53;3.50;;;;;;;17.35;45.13;100972.03;5519864;32;34190;-90
2022/04/28 15:16:39;;;;;;;4.85;3.67;;;;;;;17.20;46.23;100964.03;5548020;26;34104;-90
2022/04/28 15:19:43;;;;;;;5.05;3.90;;;;;;;17.18;48.21;100973.16;5517973;32;33670;-90
2022/04/28 15:22:46;;;;;;;5.05;3.80;;;;;;;16.98;46.48;100976.22;5535504;32;33864;-90
2022/04/28 15:25:49;;;;;;;4.45;4.05;;;;;;;16.93;46.73;100972.97;5536218;32;34263;-90
2022/04/28 15:28:52;;;;;;;4.37;3.97;;;;;;;17.13;46.70;100975.28;5534414;32;34773;-90
2022/04/28 15:31:55;;;;;;;6.10;4.22;;;;;;;17.14;46.78;100977.88;5531685;32;33510;-89
